Time;durP1;ratioP1;P1;durP2;ratioP2;P2;SDS_P1;SDS_P2;PMS_P1;PMS_P2;Temp;Humidity;BMP_temperature;BMP_pressure;BME280_temperature;BME280_humidity;BME280_pressure;Samples;Min_cycle;Max_cycle;Signal;HPM_P1;HPM_P2
2021/12/29 00:01:45;;;;;;;195.65;27.27;;;;;;;;;;5136070;27;20099;-80
2021/12/29 00:04:11;;;;;;;150.13;25.67;;;;;;;;;;5135954;27;20046;-81
2021/12/29 00:06:37;;;;;;;288.45;31.95;;;;;;;;;;5154126;27;20126;-81
2021/12/29 00:09:03;;;;;;;352.83;32.55;;;;;;;;;;5153873;27;20129;-80
2021/12/29 00:11:30;;;;;;;360.50;30.88;;;;;;;;;;5135425;27;20082;-81
2021/12/29 00:13:56;;;;;;;305.52;28.25;;;;;;;;;;5154145;27;20080;-80
2021/12/29 00:16:22;;;;;;;254.13;24.40;;;;;;;;;;5154093;27;20170;-81
2021/12/29 00:18:48;;;;;;;237.98;24.15;;;;;;;;;;5135780;27;20489;-80
2021/12/29 00:21:14;;;;;;;420.52;31.90;;;;;;;;;;5153974;27;20047;-81
2021/12/29 00:23:40;;;;;;;359.20;30.60;;;;;;;;;;5153851;27;20395;-81
2021/12/29 00:26:07;;;;;;;340.88;30.23;;;;;;;;;;5153810;27;20119;-80
2021/12/29 00:28:33;;;;;;;145.98;23.40;;;;;;;;;;5153948;27;20061;-81
2021/12/29 00:30:59;;;;;;;151.32;25.13;;;;;;;;;;5153806;27;20045;-80
2021/12/29 00:33:25;;;;;;;115.35;23.30;;;;;;;;;;5153912;27;20460;-80
2021/12/29 00:35:52;;;;;;;178.63;25.27;;;;;;;;;;5158000;27;20125;-80
2021/12/29 00:38:18;;;;;;;114.30;21.73;;;;;;;;;;5139406;27;20047;-81
2021/12/29 00:40:44;;;;;;;83.63;19.85;;;;;;;;;;5157970;27;20081;-81
2021/12/29 00:43:11;;;;;;;180.73;23.02;;;;;;;;;;5157871;27;20043;-79
2021/12/29 00:45:38;;;;;;;240.75;24.92;;;;;;;;;;5139634;27;20046;-81
2021/12/29 00:48:05;;;;;;;152.15;21.20;;;;;;;;;;5157691;27;20121;-81
2021/12/29 00:50:33;;;;;;;160.15;21.42;;;;;;;;;;5157710;27;20054;-80
2021/12/29 00:52:59;;;;;;;118.43;19.42;;;;;;;;;;5157141;27;20487;-80
2021/12/29 00:55:26;;;;;;;188.77;22.92;;;;;;;;;;5157623;27;20417;-81
2021/12/29 00:57:52;;;;;;;153.40;21.17;;;;;;;;;;5157483;27;20034;-80
2021/12/29 01:00:21;;;;;;;91.72;17.85;;;;;;;;;;5157360;27;20042;-81
2021/12/29 01:02:47;;;;;;;119.07;19.80;;;;;;;;;;5157498;27;20042;-80
2021/12/29 01:05:14;;;;;;;94.78;17.85;;;;;;;;;;5157269;27;20045;-80
2021/12/29 01:07:41;;;;;;;87.15;17.70;;;;;;;;;;5138754;27;20042;-80
2021/12/29 01:10:08;;;;;;;125.50;19.17;;;;;;;;;;5157138;27;20459;-81
2021/12/29 01:12:34;;;;;;;102.63;17.02;;;;;;;;;;5157231;27;20074;-80
2021/12/29 01:15:02;;;;;;;64.68;15.90;;;;;;;;;;5138897;27;20379;-80
2021/12/29 01:17:28;;;;;;;72.85;16.58;;;;;;;;;;5157095;27;20464;-81
2021/12/29 01:19:56;;;;;;;96.47;17.33;;;;;;;;;;5138403;27;20476;-81
2021/12/29 01:22:22;;;;;;;128.52;18.00;;;;;;;;;;5157187;27;20043;-79
2021/12/29 01:24:49;;;;;;;58.15;14.93;;;;;;;;;;5157124;27;20042;-80
2021/12/29 01:27:16;;;;;;;93.72;15.38;;;;;;;;;;5156972;27;20050;-81
2021/12/29 01:29:43;;;;;;;144.20;18.33;;;;;;;;;;5138697;27;20071;-80
2021/12/29 01:32:09;;;;;;;150.10;17.40;;;;;;;;;;5138424;27;20047;-80
2021/12/29 01:34:35;;;;;;;71.07;13.95;;;;;;;;;;5138178;27;20043;-81
2021/12/29 01:37:02;;;;;;;85.95;15.50;;;;;;;;;;5138420;27;20046;-80
2021/12/29 01:39:29;;;;;;;46.97;12.85;;;;;;;;;;5156804;27;20097;-80
2021/12/29 01:41:56;;;;;;;50.80;12.32;;;;;;;;;;5156770;27;20042;-81
2021/12/29 01:44:26;;;;;;;44.83;12.50;;;;;;;;;;5138009;27;20046;-81
2021/12/29 01:46:53;;;;;;;52.72;12.02;;;;;;;;;;5156559;27;20049;-81
2021/12/29 01:49:19;;;;;;;35.97;11.65;;;;;;;;;;5156340;27;20579;-81
2021/12/29 01:51:51;;;;;;;51.72;12.05;;;;;;;;;;5120978;27;20038;-80
2021/12/29 01:54:23;;;;;;;42.40;11.43;;;;;;;;;;5156574;27;20054;-80
2021/12/29 01:56:50;;;;;;;55.65;12.48;;;;;;;;;;5156421;27;20428;-81
2021/12/29 01:59:16;;;;;;;52.53;12.85;;;;;;;;;;5156193;27;20085;-80
2021/12/29 02:01:42;;;;;;;67.78;13.77;;;;;;;;;;5156094;27;20567;-80
2021/12/29 02:04:09;;;;;;;76.35;12.77;;;;;;;;;;5137674;27;20047;-79
2021/12/29 02:06:35;;;;;;;107.88;14.57;;;;;;;;;;5156178;27;20035;-81
2021/12/29 02:09:01;;;;;;;155.35;16.70;;;;;;;;;;5156110;27;20395;-81
2021/12/29 02:11:31;;;;;;;95.47;14.95;;;;;;;;;;5155949;27;20118;-81
2021/12/29 02:14:02;;;;;;;114.72;16.25;;;;;;;;;;5155897;27;20437;-81
2021/12/29 02:16:28;;;;;;;121.72;15.43;;;;;;;;;;5137731;27;20066;-81
2021/12/29 02:18:55;;;;;;;157.20;17.70;;;;;;;;;;5155795;27;20459;-80
2021/12/29 02:21:26;;;;;;;124.78;15.98;;;;;;;;;;5155735;27;20039;-80
2021/12/29 02:26:43;;;;;;;254.82;19.88;;;;;;;;;;5125602;27;20050;-80
2021/12/29 02:29:11;;;;;;;233.43;18.67;;;;;;;;;;5155770;27;20454;-80
2021/12/29 02:31:37;;;;;;;192.63;17.63;;;;;;;;;;5155650;27;20122;-81
2021/12/29 02:34:04;;;;;;;213.85;19.40;;;;;;;;;;5155600;27;20478;-80
2021/12/29 02:36:31;;;;;;;237.15;18.52;;;;;;;;;;5155681;27;20084;-80
2021/12/29 02:38:57;;;;;;;201.73;18.55;;;;;;;;;;5155524;27;20054;-80
2021/12/29 02:41:25;;;;;;;131.43;16.70;;;;;;;;;;5155279;27;20043;-80
2021/12/29 02:43:59;;;;;;;139.55;17.50;;;;;;;;;;5137070;27;20446;-81
2021/12/29 02:46:25;;;;;;;85.80;15.20;;;;;;;;;;5137149;27;20078;-81
2021/12/29 02:48:59;;;;;;;289.13;20.58;;;;;;;;;;5155199;27;20087;-80
2021/12/29 02:51:25;;;;;;;257.55;19.30;;;;;;;;;;5136513;27;20122;-80
2021/12/29 02:53:51;;;;;;;265.50;19.23;;;;;;;;;;5154867;27;20072;-81
2021/12/29 02:56:18;;;;;;;222.50;18.38;;;;;;;;;;5154498;27;20493;-81
2021/12/29 02:58:44;;;;;;;138.93;16.50;;;;;;;;;;5155261;27;20039;-79
2021/12/29 03:01:13;;;;;;;162.75;17.45;;;;;;;;;;5155196;27;20038;-81
2021/12/29 03:03:39;;;;;;;144.98;17.45;;;;;;;;;;5154930;27;20449;-81
2021/12/29 03:06:06;;;;;;;118.20;15.95;;;;;;;;;;5154971;27;20459;-80
2021/12/29 03:08:32;;;;;;;109.53;14.98;;;;;;;;;;5155180;27;20039;-81
2021/12/29 03:10:58;;;;;;;94.43;14.30;;;;;;;;;;5154795;27;20495;-81
2021/12/29 03:13:25;;;;;;;125.38;15.60;;;;;;;;;;5136199;27;20035;-81
2021/12/29 03:15:52;;;;;;;77.90;13.50;;;;;;;;;;5136566;27;20050;-79
2021/12/29 03:18:18;;;;;;;96.13;12.98;;;;;;;;;;5154607;27;20134;-80
2021/12/29 03:20:45;;;;;;;67.38;12.43;;;;;;;;;;5136276;27;20038;-82
2021/12/29 03:23:11;;;;;;;80.38;13.35;;;;;;;;;;5154945;27;20139;-81
2021/12/29 03:25:37;;;;;;;84.05;12.48;;;;;;;;;;5154927;27;20047;-80
2021/12/29 03:28:04;;;;;;;80.60;12.43;;;;;;;;;;5154620;27;20538;-80
2021/12/29 03:30:35;;;;;;;57.30;11.48;;;;;;;;;;5154584;27;20034;-80
2021/12/29 03:33:05;;;;;;;72.50;12.20;;;;;;;;;;5154516;27;20046;-81
2021/12/29 03:35:31;;;;;;;69.75;11.60;;;;;;;;;;5135967;27;20042;-81
2021/12/29 03:37:58;;;;;;;64.80;13.45;;;;;;;;;;5154467;27;20039;-81
2021/12/29 03:40:24;;;;;;;57.15;11.50;;;;;;;;;;5154359;27;20437;-81
2021/12/29 03:42:50;;;;;;;67.63;12.82;;;;;;;;;;5154337;27;20043;-80
2021/12/29 03:45:16;;;;;;;56.28;10.95;;;;;;;;;;5154284;27;20471;-80
2021/12/29 03:47:42;;;;;;;69.95;12.82;;;;;;;;;;5154351;27;20042;-80
2021/12/29 03:50:09;;;;;;;88.13;13.73;;;;;;;;;;5154285;27;20043;-81
2021/12/29 03:52:35;;;;;;;76.70;13.75;;;;;;;;;;5135720;27;20054;-81
2021/12/29 03:55:01;;;;;;;94.28;14.70;;;;;;;;;;5135907;27;20069;-81
2021/12/29 03:57:27;;;;;;;94.60;15.52;;;;;;;;;;5154369;27;20055;-82
2021/12/29 03:59:53;;;;;;;83.28;15.40;;;;;;;;;;5135941;27;20540;-81
2021/12/29 04:02:19;;;;;;;97.93;15.88;;;;;;;;;;5154043;27;20147;-81
2021/12/29 04:04:46;;;;;;;94.65;15.65;;;;;;;;;;5135759;27;20085;-81
2021/12/29 04:07:12;;;;;;;83.00;17.20;;;;;;;;;;5135489;27;20042;-81
2021/12/29 04:09:38;;;;;;;84.00;16.48;;;;;;;;;;5158243;27;20042;-81
2021/12/29 04:12:04;;;;;;;96.07;17.73;;;;;;;;;;5139877;27;20046;-81
2021/12/29 04:14:30;;;;;;;96.55;19.77;;;;;;;;;;5140083;27;20096;-81
2021/12/29 04:16:57;;;;;;;98.95;20.05;;;;;;;;;;5158179;27;20039;-81
2021/12/29 04:19:40;;;;;;;81.55;20.15;;;;;;;;;;5140023;27;20038;-81
2021/12/29 04:22:07;;;;;;;76.43;19.15;;;;;;;;;;5158395;27;20042;-81
2021/12/29 04:24:33;;;;;;;91.05;21.55;;;;;;;;;;5158114;27;20043;-81
2021/12/29 04:27:00;;;;;;;105.07;22.55;;;;;;;;;;5158159;27;20043;-81
2021/12/29 04:29:26;;;;;;;104.82;23.98;;;;;;;;;;5157942;27;20038;-80
2021/12/29 04:31:52;;;;;;;97.60;24.50;;;;;;;;;;5157856;27;20075;-81
2021/12/29 04:34:18;;;;;;;99.45;23.33;;;;;;;;;;5158168;27;20043;-81
2021/12/29 04:36:44;;;;;;;88.80;22.80;;;;;;;;;;5157996;27;20083;-82
2021/12/29 04:39:10;;;;;;;103.28;23.98;;;;;;;;;;5139444;27;20070;-81
2021/12/29 04:41:36;;;;;;;95.95;23.50;;;;;;;;;;5139510;27;20122;-82
2021/12/29 04:44:02;;;;;;;95.20;23.40;;;;;;;;;;5157708;27;20076;-81
2021/12/29 04:46:36;;;;;;;112.63;24.92;;;;;;;;;;5157517;27;20043;-81
2021/12/29 04:49:03;;;;;;;109.63;26.45;;;;;;;;;;5157874;27;20392;-81
2021/12/29 04:51:36;;;;;;;99.32;25.85;;;;;;;;;;5157167;27;20110;-79
2021/12/29 04:54:04;;;;;;;99.80;24.33;;;;;;;;;;5157399;27;20127;-80
2021/12/29 04:56:31;;;;;;;102.95;24.27;;;;;;;;;;5139046;27;20052;-81
2021/12/29 04:58:57;;;;;;;101.70;25.05;;;;;;;;;;5157528;27;20196;-81
2021/12/29 05:01:23;;;;;;;102.85;25.35;;;;;;;;;;5157617;27;20042;-81
2021/12/29 05:03:49;;;;;;;104.80;25.25;;;;;;;;;;5139135;27;20099;-81
2021/12/29 05:08:41;;;;;;;110.97;26.80;;;;;;;;;;5138687;27;20049;-82
2021/12/29 05:11:08;;;;;;;117.38;26.92;;;;;;;;;;5157606;27;20373;-82
2021/12/29 05:13:36;;;;;;;110.82;25.77;;;;;;;;;;5157258;27;20068;-81
2021/12/29 05:16:02;;;;;;;102.50;26.48;;;;;;;;;;5138645;27;20391;-81
2021/12/29 05:18:30;;;;;;;88.40;24.17;;;;;;;;;;5157333;27;20091;-81
2021/12/29 05:20:57;;;;;;;96.70;25.73;;;;;;;;;;5156347;27;20043;-81
2021/12/29 05:23:23;;;;;;;99.18;24.77;;;;;;;;;;5157077;27;20042;-81
2021/12/29 05:25:50;;;;;;;97.10;24.48;;;;;;;;;;5156793;27;20051;-80
2021/12/29 05:28:17;;;;;;;92.90;22.52;;;;;;;;;;5138846;27;20125;-80
2021/12/29 05:30:44;;;;;;;88.55;22.67;;;;;;;;;;5156782;27;20389;-81
2021/12/29 05:33:10;;;;;;;80.00;23.13;;;;;;;;;;5156719;27;20035;-81
2021/12/29 05:35:37;;;;;;;80.32;22.42;;;;;;;;;;5156532;27;20078;-82
2021/12/29 05:38:03;;;;;;;73.95;21.77;;;;;;;;;;5156563;27;20129;-81
2021/12/29 05:40:30;;;;;;;77.13;22.38;;;;;;;;;;5156523;27;20067;-81
2021/12/29 05:42:57;;;;;;;75.60;21.75;;;;;;;;;;5138316;27;20046;-81
2021/12/29 05:45:24;;;;;;;81.13;22.45;;;;;;;;;;5156810;27;20038;-81
2021/12/29 05:47:50;;;;;;;73.97;22.85;;;;;;;;;;5156591;27;20043;-82
2021/12/29 05:50:19;;;;;;;83.07;24.17;;;;;;;;;;5156528;27;20035;-81
2021/12/29 05:52:45;;;;;;;63.08;21.63;;;;;;;;;;5156121;27;20055;-82
2021/12/29 05:55:12;;;;;;;85.68;23.27;;;;;;;;;;5137969;27;20045;-80
2021/12/29 05:57:38;;;;;;;76.13;22.83;;;;;;;;;;5156173;27;20042;-81
2021/12/29 06:00:08;;;;;;;79.13;22.08;;;;;;;;;;5156344;27;20118;-82
2021/12/29 06:02:35;;;;;;;73.45;22.80;;;;;;;;;;5156298;27;20122;-82
2021/12/29 06:05:01;;;;;;;74.70;22.67;;;;;;;;;;5156095;27;20085;-82
2021/12/29 06:07:27;;;;;;;71.95;22.05;;;;;;;;;;5156072;27;20551;-81
2021/12/29 06:09:53;;;;;;;78.82;22.88;;;;;;;;;;5156018;27;20376;-82
2021/12/29 06:12:19;;;;;;;85.72;23.48;;;;;;;;;;5156205;27;20047;-81
2021/12/29 06:14:47;;;;;;;79.93;21.83;;;;;;;;;;5137697;27;20486;-81
2021/12/29 06:17:13;;;;;;;80.30;23.55;;;;;;;;;;5156062;27;20120;-82
2021/12/29 06:19:40;;;;;;;70.68;22.33;;;;;;;;;;5155731;27;20049;-81
2021/12/29 06:22:10;;;;;;;76.55;22.65;;;;;;;;;;5155793;27;20042;-80
2021/12/29 06:24:36;;;;;;;80.63;22.63;;;;;;;;;;5156102;27;20039;-81
2021/12/29 06:27:03;;;;;;;66.25;21.52;;;;;;;;;;5155801;27;20042;-80
2021/12/29 06:29:29;;;;;;;86.53;22.92;;;;;;;;;;5137483;27;20087;-82
2021/12/29 06:31:55;;;;;;;75.32;24.35;;;;;;;;;;5154479;27;20035;-82
2021/12/29 06:34:21;;;;;;;66.50;22.05;;;;;;;;;;5156087;27;20284;-81
2021/12/29 06:36:47;;;;;;;78.00;23.05;;;;;;;;;;5137083;27;20043;-81
2021/12/29 06:39:13;;;;;;;78.82;24.30;;;;;;;;;;5155839;27;20042;-80
2021/12/29 06:41:40;;;;;;;77.70;23.10;;;;;;;;;;5136922;27;20495;-80
2021/12/29 06:44:06;;;;;;;80.85;23.27;;;;;;;;;;5155606;27;20050;-80
2021/12/29 06:46:34;;;;;;;81.50;24.00;;;;;;;;;;5155241;27;20082;-81
2021/12/29 06:49:00;;;;;;;71.85;23.05;;;;;;;;;;5155072;27;20039;-81
2021/12/29 06:51:26;;;;;;;69.43;22.05;;;;;;;;;;5119639;27;20051;-80
2021/12/29 06:53:53;;;;;;;66.60;23.55;;;;;;;;;;5132931;27;20134;-80
2021/12/29 06:56:19;;;;;;;67.35;23.27;;;;;;;;;;5134591;27;20051;-81
2021/12/29 06:58:45;;;;;;;69.07;23.00;;;;;;;;;;5133262;27;20086;-81
2021/12/29 07:01:13;;;;;;;64.95;21.17;;;;;;;;;;5134809;27;20035;-81
2021/12/29 07:03:39;;;;;;;68.00;22.85;;;;;;;;;;5134094;27;20046;-81
2021/12/29 07:06:06;;;;;;;73.70;22.65;;;;;;;;;;5134324;27;20078;-81
2021/12/29 07:08:32;;;;;;;85.90;24.35;;;;;;;;;;5134621;27;20105;-83
2021/12/29 07:10:59;;;;;;;76.97;23.77;;;;;;;;;;5134316;27;20038;-80
2021/12/29 07:13:25;;;;;;;66.53;21.67;;;;;;;;;;5134225;27;20131;-80
2021/12/29 07:15:51;;;;;;;64.88;23.25;;;;;;;;;;5134111;27;20122;-82
2021/12/29 07:18:18;;;;;;;66.15;21.67;;;;;;;;;;5133025;27;20043;-81
2021/12/29 07:20:44;;;;;;;64.07;21.45;;;;;;;;;;5131876;27;20114;-80
2021/12/29 07:23:10;;;;;;;68.90;22.08;;;;;;;;;;5131750;27;20057;-81
2021/12/29 07:25:36;;;;;;;69.47;23.55;;;;;;;;;;5122313;27;20046;-81
2021/12/29 07:28:03;;;;;;;77.45;22.88;;;;;;;;;;5122197;27;20388;-81
2021/12/29 07:30:29;;;;;;;62.47;21.23;;;;;;;;;;5112401;27;20108;-81
2021/12/29 07:32:55;;;;;;;63.53;22.27;;;;;;;;;;5112836;28;20495;-81
2021/12/29 07:35:21;;;;;;;61.63;20.58;;;;;;;;;;5124142;27;20075;-82
2021/12/29 07:37:47;;;;;;;61.03;20.90;;;;;;;;;;5134230;27;20035;-82
2021/12/29 07:40:14;;;;;;;62.83;21.27;;;;;;;;;;5133116;27;20468;-80
2021/12/29 07:42:41;;;;;;;78.85;22.48;;;;;;;;;;5133653;27;20047;-81
2021/12/29 07:45:08;;;;;;;81.65;22.38;;;;;;;;;;5134150;27;20047;-81
2021/12/29 07:47:35;;;;;;;66.68;20.83;;;;;;;;;;5133002;27;20043;-80
2021/12/29 07:50:02;;;;;;;82.30;21.10;;;;;;;;;;5132977;27;20043;-80
2021/12/29 07:52:28;;;;;;;84.38;21.50;;;;;;;;;;5132542;27;20098;-81
2021/12/29 07:54:55;;;;;;;66.70;20.08;;;;;;;;;;5131772;27;20039;-80
2021/12/29 07:57:21;;;;;;;87.95;20.92;;;;;;;;;;5132916;28;20051;-80
2021/12/29 07:59:47;;;;;;;64.78;19.23;;;;;;;;;;5131603;28;20082;-80
2021/12/29 08:02:16;;;;;;;70.00;18.80;;;;;;;;;;5114015;28;20566;-81
2021/12/29 08:04:43;;;;;;;56.78;17.55;;;;;;;;;;5131151;28;20134;-81
2021/12/29 08:07:09;;;;;;;66.45;18.33;;;;;;;;;;5133079;28;20480;-81
2021/12/29 08:09:36;;;;;;;55.50;17.90;;;;;;;;;;5132626;28;20043;-81
2021/12/29 08:12:02;;;;;;;47.40;16.38;;;;;;;;;;5131826;28;20078;-80
2021/12/29 08:14:28;;;;;;;50.28;17.17;;;;;;;;;;5132057;28;20090;-81
2021/12/29 08:16:54;;;;;;;59.92;18.05;;;;;;;;;;5133481;28;20483;-81
2021/12/29 08:19:21;;;;;;;48.38;17.20;;;;;;;;;;5133420;28;20526;-80
2021/12/29 08:21:47;;;;;;;60.38;18.85;;;;;;;;;;5132402;28;20051;-80
2021/12/29 08:24:13;;;;;;;63.63;19.08;;;;;;;;;;5133371;28;20046;-81
2021/12/29 08:26:39;;;;;;;52.03;16.50;;;;;;;;;;5133156;28;20087;-80
2021/12/29 08:29:05;;;;;;;60.03;17.85;;;;;;;;;;5132967;28;20078;-81
2021/12/29 08:31:33;;;;;;;52.95;17.25;;;;;;;;;;5114792;28;20043;-81
2021/12/29 08:33:59;;;;;;;77.93;18.60;;;;;;;;;;5132309;28;20388;-81
2021/12/29 08:36:25;;;;;;;68.50;18.38;;;;;;;;;;5132968;28;20039;-80
2021/12/29 08:38:52;;;;;;;65.82;18.30;;;;;;;;;;5131874;28;20078;-80
2021/12/29 08:41:18;;;;;;;103.32;21.35;;;;;;;;;;5133093;27;20039;-81
2021/12/29 08:43:47;;;;;;;102.90;21.80;;;;;;;;;;5131889;28;20050;-81
2021/12/29 08:46:13;;;;;;;91.60;20.35;;;;;;;;;;5132194;28;20043;-80
2021/12/29 08:48:42;;;;;;;67.38;18.02;;;;;;;;;;5132060;28;20046;-80
2021/12/29 08:51:08;;;;;;;110.93;21.45;;;;;;;;;;5132099;28;20533;-81
2021/12/29 08:53:35;;;;;;;110.57;20.95;;;;;;;;;;5148402;27;20547;-81
2021/12/29 08:56:02;;;;;;;100.30;22.08;;;;;;;;;;5156387;27;20078;-80
2021/12/29 08:58:28;;;;;;;86.28;18.85;;;;;;;;;;5157435;27;20035;-80
2021/12/29 09:00:55;;;;;;;122.40;21.25;;;;;;;;;;5157619;27;20050;-80
2021/12/29 09:03:22;;;;;;;143.63;22.92;;;;;;;;;;5157505;27;20475;-81
2021/12/29 09:05:49;;;;;;;76.93;17.92;;;;;;;;;;5138955;27;20038;-80
2021/12/29 09:08:15;;;;;;;120.72;21.00;;;;;;;;;;5121568;27;20087;-80
2021/12/29 09:10:42;;;;;;;100.65;20.00;;;;;;;;;;5138535;27;20046;-81
2021/12/29 09:13:08;;;;;;;117.93;20.33;;;;;;;;;;5138765;27;20138;-82
2021/12/29 09:15:34;;;;;;;76.85;19.48;;;;;;;;;;5157072;27;20487;-80
2021/12/29 09:18:00;;;;;;;128.23;22.75;;;;;;;;;;5157346;27;20125;-80
2021/12/29 09:20:30;;;;;;;99.13;20.15;;;;;;;;;;5121474;27;20230;-81
2021/12/29 09:22:58;;;;;;;79.82;20.20;;;;;;;;;;5156944;27;20050;-81
2021/12/29 09:25:25;;;;;;;89.60;20.05;;;;;;;;;;5138339;27;20049;-81
2021/12/29 09:27:51;;;;;;;71.85;19.42;;;;;;;;;;5156912;27;20480;-81
2021/12/29 09:30:21;;;;;;;79.28;19.42;;;;;;;;;;5138695;27;20080;-80
2021/12/29 09:32:48;;;;;;;78.18;19.63;;;;;;;;;;5156747;27;20121;-81
2021/12/29 09:35:16;;;;;;;62.58;18.30;;;;;;;;;;5156493;27;20042;-80
2021/12/29 09:37:42;;;;;;;65.22;18.33;;;;;;;;;;5121161;27;20077;-81
2021/12/29 09:40:09;;;;;;;60.45;18.90;;;;;;;;;;5156441;27;20073;-80
2021/12/29 09:42:35;;;;;;;64.95;17.85;;;;;;;;;;5138697;27;20082;-82
2021/12/29 09:45:02;;;;;;;63.20;18.30;;;;;;;;;;5156717;27;20038;-82
2021/12/29 09:47:28;;;;;;;75.10;18.80;;;;;;;;;;5156689;27;20125;-80
2021/12/29 09:49:55;;;;;;;78.60;19.15;;;;;;;;;;5137041;27;20035;-81
2021/12/29 09:52:21;;;;;;;58.28;17.80;;;;;;;;;;5156147;27;20134;-81
2021/12/29 09:54:47;;;;;;;57.00;17.50;;;;;;;;;;5152767;27;20070;-80
2021/12/29 09:57:13;;;;;;;91.13;19.25;;;;;;;;;;5135798;27;20043;-80
2021/12/29 09:59:39;;;;;;;74.30;18.73;;;;;;;;;;5133935;27;20097;-81
2021/12/29 10:02:06;;;;;;;77.53;19.70;;;;;;;;;;5117270;27;20475;-81
2021/12/29 10:04:34;;;;;;;63.72;18.60;;;;;;;;;;5135772;27;20499;-81
2021/12/29 10:07:15;;;;;;;61.22;16.80;;;;;;;;;;5155861;27;20082;-80
2021/12/29 10:09:41;;;;;;;60.95;17.88;;;;;;;;;;5131244;27;20043;-81
2021/12/29 10:12:19;;;;;;;46.80;15.63;;;;;;;;;;5096490;28;20537;-81
2021/12/29 10:14:53;;;;;;;66.47;17.63;;;;;;;;;;5097116;27;20035;-80
2021/12/29 10:17:21;;;;;;;53.88;14.95;;;;;;;;;;5096559;28;20126;-81
2021/12/29 10:19:47;;;;;;;54.67;16.15;;;;;;;;;;5114948;27;20047;-80
2021/12/29 10:22:20;;;;;;;48.33;15.52;;;;;;;;;;5135212;27;20062;-81
2021/12/29 10:24:46;;;;;;;45.90;15.02;;;;;;;;;;5135105;27;20430;-81
2021/12/29 10:27:18;;;;;;;50.28;15.57;;;;;;;;;;5114627;28;20036;-80
2021/12/29 10:29:44;;;;;;;;;;;;;;;;;;5096909;28;20039;-80
2021/12/29 10:32:10;;;;;;;59.08;16.30;;;;;;;;;;5152441;27;20572;-80
2021/12/29 10:34:36;;;;;;;49.88;14.98;;;;;;;;;;5137005;27;20526;-81
2021/12/29 10:37:07;;;;;;;58.15;15.25;;;;;;;;;;5154900;27;20498;-80
2021/12/29 10:39:35;;;;;;;50.00;15.55;;;;;;;;;;5137046;27;20050;-80
2021/12/29 10:42:03;;;;;;;53.80;14.25;;;;;;;;;;5155054;27;20121;-80
2021/12/29 10:44:36;;;;;;;45.03;14.77;;;;;;;;;;5136756;27;20438;-80
2021/12/29 10:47:13;;;;;;;33.97;12.63;;;;;;;;;;5135442;27;20038;-80
2021/12/29 10:49:49;;;;;;;31.83;12.25;;;;;;;;;;5134615;27;20086;-79
2021/12/29 10:52:15;;;;;;;28.88;11.57;;;;;;;;;;5115664;27;20098;-80
2021/12/29 10:54:41;;;;;;;27.02;10.88;;;;;;;;;;5116172;27;20122;-80
2021/12/29 10:57:09;;;;;;;33.53;11.25;;;;;;;;;;5144909;27;20180;-80
2021/12/29 10:59:41;;;;;;;27.23;11.05;;;;;;;;;;5116015;27;20047;-81
2021/12/29 11:02:07;;;;;;;27.77;10.65;;;;;;;;;;5116129;27;20482;-81
2021/12/29 11:04:33;;;;;;;31.65;11.93;;;;;;;;;;5134275;27;20408;-81
2021/12/29 11:07:01;;;;;;;32.17;12.88;;;;;;;;;;5115769;27;20099;-80
2021/12/29 11:09:27;;;;;;;24.67;10.65;;;;;;;;;;5149604;27;20042;-81
2021/12/29 11:11:53;;;;;;;28.88;10.68;;;;;;;;;;5152602;27;20479;-81
2021/12/29 11:14:22;;;;;;;21.50;10.35;;;;;;;;;;5118620;27;20094;-80
2021/12/29 11:16:53;;;;;;;26.77;11.98;;;;;;;;;;5135581;27;20042;-80
2021/12/29 11:19:20;;;;;;;27.25;10.45;;;;;;;;;;5153423;27;20121;-79
2021/12/29 11:21:47;;;;;;;23.10;10.55;;;;;;;;;;5153638;27;20126;-80
2021/12/29 11:24:16;;;;;;;22.65;10.32;;;;;;;;;;5153569;27;20395;-81
2021/12/29 11:26:43;;;;;;;23.40;10.32;;;;;;;;;;5153793;27;20072;-79
2021/12/29 11:29:16;;;;;;;21.92;10.90;;;;;;;;;;5153802;27;20057;-79
2021/12/29 11:31:47;;;;;;;25.13;11.07;;;;;;;;;;5134938;27;20031;-80
2021/12/29 11:34:15;;;;;;;24.50;11.50;;;;;;;;;;5153665;27;20039;-81
2021/12/29 11:36:41;;;;;;;28.45;11.93;;;;;;;;;;5153578;27;20035;-79
2021/12/29 11:39:07;;;;;;;29.17;12.52;;;;;;;;;;5153676;27;20046;-80
2021/12/29 11:41:33;;;;;;;30.65;13.30;;;;;;;;;;5153724;27;20045;-80
2021/12/29 11:43:59;;;;;;;26.98;12.60;;;;;;;;;;5153342;27;20647;-80
2021/12/29 11:46:26;;;;;;;24.00;11.25;;;;;;;;;;5135282;27;20034;-80
2021/12/29 11:48:52;;;;;;;29.13;13.63;;;;;;;;;;5153419;27;20039;-80
2021/12/29 11:51:30;;;;;;;32.95;14.13;;;;;;;;;;5153461;27;20122;-80
2021/12/29 11:54:01;;;;;;;37.50;17.20;;;;;;;;;;5153136;27;20153;-80
2021/12/29 11:56:27;;;;;;;39.00;16.52;;;;;;;;;;5135179;27;20093;-80
2021/12/29 11:59:03;;;;;;;36.67;14.80;;;;;;;;;;5135039;27;20042;-80
2021/12/29 12:01:31;;;;;;;37.58;16.05;;;;;;;;;;5153263;27;20117;-79
2021/12/29 12:03:59;;;;;;;36.70;15.45;;;;;;;;;;5117970;27;20138;-80
2021/12/29 12:06:43;;;;;;;35.03;13.80;;;;;;;;;;5153322;27;20042;-80
2021/12/29 12:09:21;;;;;;;28.48;14.30;;;;;;;;;;5153454;27;20111;-80
2021/12/29 12:11:50;;;;;;;32.85;14.13;;;;;;;;;;5117943;27;20043;-80
2021/12/29 12:14:36;;;;;;;35.38;15.13;;;;;;;;;;5134838;27;20054;-81
2021/12/29 12:17:16;;;;;;;33.65;14.02;;;;;;;;;;5153467;27;20043;-80
2021/12/29 12:19:42;;;;;;;30.33;13.10;;;;;;;;;;5134991;27;20099;-79
2021/12/29 12:22:13;;;;;;;34.53;13.30;;;;;;;;;;5153157;27;20074;-80
2021/12/29 12:24:41;;;;;;;35.42;14.15;;;;;;;;;;5153111;27;20039;-82
2021/12/29 12:27:11;;;;;;;37.78;13.10;;;;;;;;;;5153422;27;20134;-80
2021/12/29 12:29:39;;;;;;;29.98;13.43;;;;;;;;;;5155611;27;20510;-81
2021/12/29 12:32:05;;;;;;;36.47;13.13;;;;;;;;;;5157098;27;20417;-81
2021/12/29 12:34:32;;;;;;;31.73;13.35;;;;;;;;;;5157258;27;20387;-80
2021/12/29 12:37:00;;;;;;;34.15;12.88;;;;;;;;;;5156710;27;20049;-80
2021/12/29 12:39:28;;;;;;;38.03;13.38;;;;;;;;;;5157346;27;20051;-80
2021/12/29 12:41:56;;;;;;;36.92;13.45;;;;;;;;;;5156903;27;20368;-81
2021/12/29 12:44:38;;;;;;;35.58;13.38;;;;;;;;;;5157065;27;20042;-81
2021/12/29 12:47:22;;;;;;;34.40;13.52;;;;;;;;;;5157038;27;20043;-80
2021/12/29 12:49:52;;;;;;;36.88;13.63;;;;;;;;;;5138021;27;20190;-80
2021/12/29 12:52:22;;;;;;;33.30;12.07;;;;;;;;;;5156581;27;20107;-80
2021/12/29 12:54:48;;;;;;;36.67;12.30;;;;;;;;;;5156465;27;20042;-80
2021/12/29 12:57:25;;;;;;;32.60;13.25;;;;;;;;;;5137523;27;20053;-80
2021/12/29 12:59:54;;;;;;;32.65;12.73;;;;;;;;;;5138181;27;20204;-80
2021/12/29 13:02:22;;;;;;;34.42;11.55;;;;;;;;;;5156831;27;20038;-81
2021/12/29 13:05:07;;;;;;;33.38;12.93;;;;;;;;;;5156654;27;20406;-81
2021/12/29 13:07:33;;;;;;;36.88;13.23;;;;;;;;;;5156527;27;20031;-81
2021/12/29 13:10:00;;;;;;;39.72;18.92;;;;;;;;;;5156530;27;20038;-80
2021/12/29 13:12:29;;;;;;;54.75;25.52;;;;;;;;;;5137698;27;20050;-79
2021/12/29 13:15:07;;;;;;;53.00;25.40;;;;;;;;;;5156479;27;20138;-80
2021/12/29 13:17:33;;;;;;;46.67;22.58;;;;;;;;;;5138110;27;20175;-80
2021/12/29 13:19:59;;;;;;;48.78;17.95;;;;;;;;;;5156023;27;20387;-80
2021/12/29 13:22:29;;;;;;;41.20;21.10;;;;;;;;;;5156156;27;20042;-80
2021/12/29 13:25:13;;;;;;;51.85;23.23;;;;;;;;;;5137584;27;20042;-80
2021/12/29 13:27:41;;;;;;;48.67;23.00;;;;;;;;;;5156084;27;20041;-80
2021/12/29 13:30:12;;;;;;;48.72;22.80;;;;;;;;;;5155841;27;20487;-80
2021/12/29 13:32:54;;;;;;;43.97;19.98;;;;;;;;;;5156544;27;20082;-79
2021/12/29 13:35:28;;;;;;;42.50;15.32;;;;;;;;;;5156389;27;20050;-80
2021/12/29 13:37:56;;;;;;;46.47;21.27;;;;;;;;;;5138375;27;20053;-80
2021/12/29 13:40:34;;;;;;;48.85;22.85;;;;;;;;;;5137647;27;20039;-79
2021/12/29 13:43:00;;;;;;;47.58;18.27;;;;;;;;;;5120540;27;20059;-80
2021/12/29 13:45:28;;;;;;;44.13;22.88;;;;;;;;;;5138361;27;20046;-80
2021/12/29 13:47:54;;;;;;;52.25;27.13;;;;;;;;;;5137964;27;20110;-79
2021/12/29 13:50:20;;;;;;;46.50;20.83;;;;;;;;;;5156706;27;20091;-80
2021/12/29 13:53:07;;;;;;;46.65;16.40;;;;;;;;;;5134515;27;20049;-79
2021/12/29 13:55:38;;;;;;;42.60;16.15;;;;;;;;;;5135363;27;20046;-80
2021/12/29 13:58:05;;;;;;;50.75;16.13;;;;;;;;;;5135737;27;20045;-80
2021/12/29 14:00:33;;;;;;;43.67;17.10;;;;;;;;;;5135411;27;20537;-79
2021/12/29 14:02:59;;;;;;;37.25;16.30;;;;;;;;;;5135754;27;20103;-79
2021/12/29 14:05:54;;;;;;;34.50;16.48;;;;;;;;;;5135615;27;20050;-80
2021/12/29 14:08:21;;;;;;;42.50;17.45;;;;;;;;;;5122062;27;20373;-80
2021/12/29 14:10:47;;;;;;;37.80;18.23;;;;;;;;;;5135328;27;20243;-80
2021/12/29 14:13:15;;;;;;;41.70;18.35;;;;;;;;;;5135253;27;20039;-80
2021/12/29 14:15:41;;;;;;;34.42;17.70;;;;;;;;;;5135432;27;20038;-80
2021/12/29 14:18:20;;;;;;;45.15;18.75;;;;;;;;;;5135234;27;20054;-80
2021/12/29 14:20:48;;;;;;;44.40;19.98;;;;;;;;;;5135305;27;20112;-80
2021/12/29 14:23:14;;;;;;;47.05;19.27;;;;;;;;;;5134006;27;20376;-80